Bei Facebook empfehlenBei Twitter postenGoogle plusPinterest

Das Wetter im Erzgebirge am 01.11.2015

Wetter und Klima am 01.11.2015 Holzhau im Erzgebirge (630m ü.NN)
Letzte gemessene Temperatur und Uhrzeit der Messung23:59:00 Uhr5.20 °C
Temperatur (Maximum / Höchstwert) und Uhrzeit der Messung11:59:00 Uhr12.60 °C
Temperatur (Minimum / Tiefstwert) und Uhrzeit der Messung07:29:004.40 °C
Errechneter Absolutwert der Temperaturschwankungen zwischen Tmin und Tmax des Tages8.20 K
Errechnete Tagesmitteltemperatur7.04896 °C
Gesamt - Niederschlag des Tages (in flüssiger Form)0.00 Liter / m²
Luftdruck (Maximum / Höchstwert) und Zeitpunkt der Messung19:29:00 Uhr1029.20 hPa
Luftdruck (Minimum / Tiefstwert) und Zeitpunkt der Messung04:29:00 Uhr1027.40 hPa
Errechneter Absolutwert der Luftdruckschwankungen des Tages1.80 hPa
Höchste gemessene Windgeschwindigkeit und Uhrzeit der Messung12:44:00 Uhr25.92 km/h
Errechnete Windhäufigkeit in Relation zu den Messwerten des Tages41.66667 %
Niedrigste Windkühle (Windchill) und Zeitpunkt der Messung06:14:00 Uhr2.20 °C
Taupunkt (Maximum / Höchstwert) und Uhrzeit der Messung11:14:00 Uhr6.90 °C
Taupunkt (Minimum / Tiefstwert) und Uhrzeit der Messung22:59:000.30 °C
Anzahl der automatisch eingelesenen Messwerte 96

Detaillierte Wetter- und Klima- Messwerte für den 01.11.2015 in Holzhau im Erzgebirge (630m ü.NN)
ZeitTemperaturLuftdruckRel. LuftfeuchteWindWindrichtungWindchillTaupunktNiederschlag l/m²
23:59:005.20 °C1028.00 hPa73.00 %0.80 °C 
23:44:005.10 °C1028.30 hPa72.00 %0.50 °C 
23:29:005.20 °C1028.20 hPa72.00 %1.80 km/hSO5.20 °C0.60 °C 
23:14:005.00 °C1028.20 hPa73.00 %3.60 km/hOSO5.00 °C0.60 °C 
22:59:004.90 °C1028.40 hPa72.00 %0.30 °C 
22:44:005.00 °C1028.30 hPa72.00 %0.40 °C 
22:29:004.90 °C1028.40 hPa72.00 %0.30 °C 
22:14:005.10 °C1028.60 hPa72.00 %0.50 °C 
21:59:005.10 °C1028.70 hPa72.00 %0.50 °C 
21:44:005.10 °C1029.00 hPa71.00 %0.30 °C 
21:29:005.30 °C1028.90 hPa71.00 %0.50 °C 
21:14:005.40 °C1028.80 hPa70.00 %3.24 km/hSO5.40 °C0.40 °C 
20:59:005.80 °C1028.80 hPa69.00 %0.60 °C 
20:44:006.10 °C1029.00 hPa69.00 %0.90 °C 
20:29:006.10 °C1028.90 hPa70.00 %1.10 °C 
20:14:006.10 °C1028.80 hPa70.00 %1.10 °C 
19:59:006.20 °C1029.10 hPa70.00 %1.80 km/hOSO6.20 °C1.10 °C 
19:44:006.30 °C1029.00 hPa70.00 %6.12 km/hONO5.20 °C1.20 °C 
19:29:006.40 °C1029.20 hPa70.00 %1.30 °C 
19:14:006.20 °C1028.90 hPa71.00 %3.24 km/hSO6.20 °C1.30 °C 
18:59:006.10 °C1028.80 hPa72.00 %2.52 km/hSO6.10 °C1.40 °C 
18:44:006.10 °C1028.90 hPa72.00 %1.40 °C 
18:29:005.90 °C1029.00 hPa72.00 %1.20 °C 
18:14:005.90 °C1028.60 hPa72.00 %1.20 °C 
17:59:005.80 °C1028.60 hPa72.00 %1.20 °C 
17:44:005.80 °C1028.60 hPa72.00 %1.20 °C 
17:29:006.10 °C1028.60 hPa71.00 %1.20 °C 
17:14:006.40 °C1028.60 hPa71.00 %2.52 km/hOSO6.40 °C1.50 °C 
16:59:006.50 °C1028.60 hPa70.00 %1.40 °C 
16:44:006.90 °C1028.70 hPa69.00 %1.60 °C 
16:29:007.30 °C1028.80 hPa68.00 %1.80 °C 
16:14:007.90 °C1028.80 hPa67.00 %2.20 °C 
15:59:008.90 °C1028.90 hPa65.00 %2.70 °C 
15:44:009.60 °C1028.80 hPa64.00 %2.16 km/hN9.60 °C3.10 °C 
15:29:009.90 °C1028.90 hPa65.00 %3.60 °C 
15:14:0010.10 °C1028.70 hPa65.00 %3.80 °C 
14:59:0010.20 °C1028.80 hPa65.00 %5.76 km/hSSO9.80 °C3.90 °C 
14:44:0010.50 °C1028.80 hPa65.00 %4.20 °C 
14:29:0010.80 °C1028.70 hPa64.00 %4.30 °C 
14:14:0010.80 °C1028.70 hPa64.00 %4.30 °C 
13:59:0010.90 °C1028.80 hPa62.00 %22.32 km/hSSO8.30 °C3.90 °C 
13:44:0011.10 °C1028.60 hPa61.00 %23.04 km/hOSO8.50 °C3.90 °C 
13:29:0011.30 °C1028.90 hPa60.00 %3.24 km/hS11.30 °C3.80 °C 
13:14:0011.30 °C1028.90 hPa60.00 %6.84 km/hSSO10.80 °C3.80 °C 
12:59:0011.30 °C1028.80 hPa59.00 %4.68 km/hONO11.30 °C3.60 °C 
12:44:0011.50 °C1028.90 hPa60.00 %25.92 km/hSSO8.80 °C4.00 °C 
12:29:0011.80 °C1029.20 hPa61.00 %2.16 km/hSO11.80 °C4.50 °C 
12:14:0012.50 °C1029.00 hPa63.00 %10.44 km/hOSO11.60 °C5.70 °C 
11:59:0012.60 °C1029.00 hPa65.00 %6.20 °C 
11:44:0012.20 °C1028.80 hPa67.00 %13.68 km/hOSO10.80 °C6.30 °C 
11:29:0011.90 °C1028.80 hPa68.00 %3.60 km/hOSO11.90 °C6.20 °C 
11:14:0011.80 °C1028.70 hPa72.00 %3.96 km/hN11.80 °C6.90 °C 
10:59:0011.30 °C1028.60 hPa74.00 %6.80 °C 
10:44:0010.80 °C1028.50 hPa75.00 %2.52 km/hSO10.80 °C6.60 °C 
10:29:0010.50 °C1028.60 hPa77.00 %2.88 km/hONO10.50 °C6.60 °C 
10:14:0010.00 °C1028.50 hPa80.00 %6.70 °C 
09:59:009.50 °C1028.60 hPa81.00 %3.96 km/hN9.50 °C6.40 °C 
09:44:009.00 °C1028.50 hPa84.00 %6.40 °C 
09:29:008.50 °C1028.70 hPa85.00 %6.10 °C 
09:14:008.10 °C1028.60 hPa86.00 %9.36 km/hN6.50 °C5.90 °C 
08:59:007.40 °C1028.60 hPa87.00 %5.40 °C 
08:44:006.60 °C1028.50 hPa88.00 %4.80 °C 
08:29:005.70 °C1028.30 hPa89.00 %4.00 °C 
08:14:005.10 °C1028.20 hPa88.00 %3.30 °C 
07:59:004.90 °C1028.00 hPa89.00 %3.20 °C 
07:44:004.60 °C1027.90 hPa89.00 %2.90 °C 
07:29:004.40 °C1027.90 hPa89.00 %2.80 °C 
07:14:004.40 °C1027.90 hPa89.00 %2.80 °C 
06:59:004.50 °C1027.80 hPa88.00 %2.70 °C 
06:44:004.60 °C1027.70 hPa88.00 %5.76 km/hN3.30 °C2.80 °C 
06:29:004.70 °C1027.60 hPa88.00 %6.84 km/hS3.10 °C2.90 °C 
06:14:004.80 °C1027.70 hPa88.00 %11.16 km/hOSO2.20 °C3.00 °C 
05:59:005.00 °C1027.50 hPa88.00 %5.04 km/hN4.10 °C3.20 °C 
05:44:005.00 °C1027.50 hPa87.00 %6.84 km/hOSO3.50 °C3.00 °C 
05:29:005.10 °C1027.50 hPa87.00 %8.28 km/hNNO3.20 °C3.10 °C 
05:14:005.10 °C1027.60 hPa87.00 %3.10 °C 
04:59:005.10 °C1027.60 hPa87.00 %3.10 °C 
04:44:005.10 °C1027.50 hPa87.00 %3.10 °C 
04:29:005.00 °C1027.40 hPa87.00 %6.12 km/hOSO3.70 °C3.00 °C 
04:14:004.90 °C1027.50 hPa87.00 %2.90 °C 
03:59:005.00 °C1027.70 hPa87.00 %4.32 km/hNNO5.00 °C3.00 °C 
03:44:005.10 °C1027.80 hPa87.00 %3.10 °C 
03:29:005.10 °C1027.60 hPa87.00 %7.56 km/hO3.40 °C3.10 °C 
03:14:005.20 °C1027.70 hPa87.00 %3.20 °C 
02:59:005.20 °C1027.80 hPa86.00 %3.10 °C 
02:44:005.30 °C1027.80 hPa86.00 %3.20 °C 
02:29:005.30 °C1028.10 hPa86.00 %3.20 °C 
02:14:005.40 °C1028.20 hPa86.00 %3.30 °C 
01:59:005.50 °C1028.20 hPa86.00 %3.30 °C 
01:44:005.60 °C1028.10 hPa85.00 %1.44 km/hSO5.60 °C3.30 °C 
01:29:005.80 °C1028.10 hPa85.00 %3.24 km/hSO5.80 °C3.50 °C 
01:14:005.90 °C1028.20 hPa85.00 %3.60 °C 
00:59:005.90 °C1028.40 hPa85.00 %6.48 km/hO4.60 °C3.60 °C 
00:44:006.00 °C1028.30 hPa84.00 %5.40 km/hO5.10 °C3.50 °C 
00:29:006.20 °C1028.10 hPa84.00 %12.60 km/hOSO3.60 °C3.70 °C 
00:14:006.30 °C1028.20 hPa84.00 %20.16 km/hONO2.70 °C3.80 °C 

Permanenter Link zu dieser Seite: Wetter im Erzgebirge am 01.11.2015
Performance-Info: Die Erstellung der Seite / Statistik(en) / Tabelle(n) erforderte 5 Datenbankserver-Abfrage(n) und dauerte 101 Millisekunden. (Dieser Messwert ist von der Gesamt-Auslastung des Servers abhängig.)
Erzgebirge - Wetter | Erzgebirge - Wetter (Mobilgeräte) | Komplette Klimadatenbank